sensor_id;sensor_type;location;lat;lon;timestamp;temperature;humidity
11664;DHT22;72375;59.302;18.204;2024-01-15T00:00:39;0.20;99.90
11664;DHT22;72375;59.302;18.204;2024-01-15T00:03:26;0.20;99.90
11664;DHT22;72375;59.302;18.204;2024-01-15T00:06:12;0.10;99.90
11664;DHT22;72375;59.302;18.204;2024-01-15T00:08:57;0.10;99.90
11664;DHT22;72375;59.302;18.204;2024-01-15T00:11:43;0.10;99.90
11664;DHT22;72375;59.302;18.204;2024-01-15T00:14:29;0.10;99.90
11664;DHT22;72375;59.302;18.204;2024-01-15T00:17:15;0.30;99.90
11664;DHT22;72375;59.302;18.204;2024-01-15T00:20:02;0.10;99.90
11664;DHT22;72375;59.302;18.204;2024-01-15T00:22:48;0.00;99.90
11664;DHT22;72375;59.302;18.204;2024-01-15T00:25:34;0.00;99.90
11664;DHT22;72375;59.302;18.204;2024-01-15T00:28:19;0.00;99.90
11664;DHT22;72375;59.302;18.204;2024-01-15T00:31:05;0.00;99.90
11664;DHT22;72375;59.302;18.204;2024-01-15T00:33:51;0.00;99.90
11664;DHT22;72375;59.302;18.204;2024-01-15T00:36:38;0.00;99.90
11664;DHT22;72375;59.302;18.204;2024-01-15T00:39:23;0.00;99.90
11664;DHT22;72375;59.302;18.204;2024-01-15T00:42:09;0.00;99.90
11664;DHT22;72375;59.302;18.204;2024-01-15T00:44:54;-0.10;99.90
11664;DHT22;72375;59.302;18.204;2024-01-15T00:47:40;0.00;99.90
11664;DHT22;72375;59.302;18.204;2024-01-15T00:50:26;0.00;99.90
11664;DHT22;72375;59.302;18.204;2024-01-15T00:53:13;0.50;99.90
11664;DHT22;72375;59.302;18.204;2024-01-15T00:55:59;-0.10;99.90
11664;DHT22;72375;59.302;18.204;2024-01-15T00:58:44;-0.10;99.90
11664;DHT22;72375;59.302;18.204;2024-01-15T01:01:30;0.00;99.90
11664;DHT22;72375;59.302;18.204;2024-01-15T01:04:15;-0.10;99.90
11664;DHT22;72375;59.302;18.204;2024-01-15T01:07:01;-0.10;99.90
11664;DHT22;72375;59.302;18.204;2024-01-15T01:09:48;-0.10;99.90
11664;DHT22;72375;59.302;18.204;2024-01-15T01:12:35;0.20;99.90
11664;DHT22;72375;59.302;18.204;2024-01-15T01:15:21;-0.10;99.90
11664;DHT22;72375;59.302;18.204;2024-01-15T01:18:06;-0.20;99.90
11664;DHT22;72375;59.302;18.204;2024-01-15T01:20:52;-0.20;99.90
11664;DHT22;72375;59.302;18.204;2024-01-15T01:23:38;0.10;99.90
11664;DHT22;72375;59.302;18.204;2024-01-15T01:26:25;0.50;99.90
11664;DHT22;72375;59.302;18.204;2024-01-15T01:29:10;-0.30;99.90
11664;DHT22;72375;59.302;18.204;2024-01-15T01:31:56;-0.30;99.90
11664;DHT22;72375;59.302;18.204;2024-01-15T01:34:42;-0.20;99.90
11664;DHT22;72375;59.302;18.204;2024-01-15T01:37:28;0.20;99.90
11664;DHT22;72375;59.302;18.204;2024-01-15T01:40:13;-0.30;99.90
11664;DHT22;72375;59.302;18.204;2024-01-15T01:43:00;0.30;99.90
11664;DHT22;72375;59.302;18.204;2024-01-15T01:45:47;-0.40;99.90
11664;DHT22;72375;59.302;18.204;2024-01-15T01:48:33;-0.40;99.90
11664;DHT22;72375;59.302;18.204;2024-01-15T01:51:20;-0.40;99.90
11664;DHT22;72375;59.302;18.204;2024-01-15T01:54:08;-0.40;99.90
11664;DHT22;72375;59.302;18.204;2024-01-15T01:56:57;-0.40;99.90
11664;DHT22;72375;59.302;18.204;2024-01-15T01:59:44;-0.40;99.90
11664;DHT22;72375;59.302;18.204;2024-01-15T02:02:31;-0.10;99.90
11664;DHT22;72375;59.302;18.204;2024-01-15T02:05:18;-0.40;99.90
11664;DHT22;72375;59.302;18.204;2024-01-15T02:08:04;-0.40;99.90
11664;DHT22;72375;59.302;18.204;2024-01-15T02:10:50;-0.50;99.90
11664;DHT22;72375;59.302;18.204;2024-01-15T02:13:36;-0.50;99.90
11664;DHT22;72375;59.302;18.204;2024-01-15T02:16:23;-0.50;99.90
11664;DHT22;72375;59.302;18.204;2024-01-15T02:19:15;-0.40;99.90
11664;DHT22;72375;59.302;18.204;2024-01-15T02:22:01;-0.50;99.90
11664;DHT22;72375;59.302;18.204;2024-01-15T02:24:47;-0.50;99.90
11664;DHT22;72375;59.302;18.204;2024-01-15T02:27:33;-0.40;99.90
11664;DHT22;72375;59.302;18.204;2024-01-15T02:30:19;0.00;99.90
11664;DHT22;72375;59.302;18.204;2024-01-15T02:33:05;-0.50;99.90
11664;DHT22;72375;59.302;18.204;2024-01-15T02:35:51;-0.50;99.90
11664;DHT22;72375;59.302;18.204;2024-01-15T02:38:36;-0.50;99.90
11664;DHT22;72375;59.302;18.204;2024-01-15T02:41:23;0.10;99.90
11664;DHT22;72375;59.302;18.204;2024-01-15T02:44:09;-0.50;99.90
11664;DHT22;72375;59.302;18.204;2024-01-15T02:46:55;-0.50;99.90
11664;DHT22;72375;59.302;18.204;2024-01-15T02:49:40;-0.50;99.90
11664;DHT22;72375;59.302;18.204;2024-01-15T02:52:26;-0.60;99.90
11664;DHT22;72375;59.302;18.204;2024-01-15T02:55:11;-0.50;99.90
11664;DHT22;72375;59.302;18.204;2024-01-15T02:57:58;-0.10;99.90
11664;DHT22;72375;59.302;18.204;2024-01-15T03:00:44;-0.60;99.90
11664;DHT22;72375;59.302;18.204;2024-01-15T03:03:30;-0.60;99.90
11664;DHT22;72375;59.302;18.204;2024-01-15T03:06:17;-0.60;99.90
11664;DHT22;72375;59.302;18.204;2024-01-15T03:09:03;-0.60;99.90
11664;DHT22;72375;59.302;18.204;2024-01-15T03:11:49;-0.60;99.90
11664;DHT22;72375;59.302;18.204;2024-01-15T03:14:36;-0.60;99.90
11664;DHT22;72375;59.302;18.204;2024-01-15T03:17:22;-0.70;99.90
11664;DHT22;72375;59.302;18.204;2024-01-15T03:20:08;-0.70;99.90
11664;DHT22;72375;59.302;18.204;2024-01-15T03:22:54;-0.70;99.90
11664;DHT22;72375;59.302;18.204;2024-01-15T03:25:39;-0.70;99.90
11664;DHT22;72375;59.302;18.204;2024-01-15T03:28:25;-0.40;99.90
11664;DHT22;72375;59.302;18.204;2024-01-15T03:31:12;-0.80;99.90
11664;DHT22;72375;59.302;18.204;2024-01-15T03:33:57;-0.80;99.90
11664;DHT22;72375;59.302;18.204;2024-01-15T03:36:43;-0.80;99.90
11664;DHT22;72375;59.302;18.204;2024-01-15T03:39:28;-0.90;99.90
11664;DHT22;72375;59.302;18.204;2024-01-15T03:42:14;-0.50;99.90
11664;DHT22;72375;59.302;18.204;2024-01-15T03:45:00;-0.90;99.90
11664;DHT22;72375;59.302;18.204;2024-01-15T03:47:47;-0.90;99.90
11664;DHT22;72375;59.302;18.204;2024-01-15T03:50:32;-0.80;99.90
11664;DHT22;72375;59.302;18.204;2024-01-15T03:53:18;0.00;99.90
11664;DHT22;72375;59.302;18.204;2024-01-15T03:56:04;-0.20;99.90
11664;DHT22;72375;59.302;18.204;2024-01-15T03:58:50;-0.80;99.90
11664;DHT22;72375;59.302;18.204;2024-01-15T04:01:36;-0.80;99.90
11664;DHT22;72375;59.302;18.204;2024-01-15T04:04:23;-0.90;99.90
11664;DHT22;72375;59.302;18.204;2024-01-15T04:07:09;-1.00;99.90
11664;DHT22;72375;59.302;18.204;2024-01-15T04:09:55;-0.60;99.90
11664;DHT22;72375;59.302;18.204;2024-01-15T04:12:40;-0.90;99.90
11664;DHT22;72375;59.302;18.204;2024-01-15T04:15:26;-0.90;99.90
11664;DHT22;72375;59.302;18.204;2024-01-15T04:18:12;-1.00;99.90
11664;DHT22;72375;59.302;18.204;2024-01-15T04:20:59;-1.00;99.90
11664;DHT22;72375;59.302;18.204;2024-01-15T04:23:44;-0.50;99.90
11664;DHT22;72375;59.302;18.204;2024-01-15T04:26:30;-1.00;99.90
11664;DHT22;72375;59.302;18.204;2024-01-15T04:29:16;-1.00;99.90
11664;DHT22;72375;59.302;18.204;2024-01-15T04:32:02;-1.10;99.90
11664;DHT22;72375;59.302;18.204;2024-01-15T04:34:48;-1.10;99.90
11664;DHT22;72375;59.302;18.204;2024-01-15T04:37:35;-1.10;99.90
11664;DHT22;72375;59.302;18.204;2024-01-15T04:40:20;-1.10;99.90
11664;DHT22;72375;59.302;18.204;2024-01-15T04:43:06;-1.10;99.90
11664;DHT22;72375;59.302;18.204;2024-01-15T04:45:52;-1.10;99.90
11664;DHT22;72375;59.302;18.204;2024-01-15T04:48:37;-1.20;99.90
11664;DHT22;72375;59.302;18.204;2024-01-15T04:51:23;-1.00;99.90
11664;DHT22;72375;59.302;18.204;2024-01-15T04:54:10;-1.20;99.90
11664;DHT22;72375;59.302;18.204;2024-01-15T04:56:56;-1.20;99.90
11664;DHT22;72375;59.302;18.204;2024-01-15T04:59:42;-1.20;99.90
11664;DHT22;72375;59.302;18.204;2024-01-15T05:02:27;-1.20;99.90
11664;DHT22;72375;59.302;18.204;2024-01-15T05:05:13;-1.00;99.90
11664;DHT22;72375;59.302;18.204;2024-01-15T05:07:58;-1.30;99.90
11664;DHT22;72375;59.302;18.204;2024-01-15T05:10:46;-1.30;99.90
11664;DHT22;72375;59.302;18.204;2024-01-15T05:13:32;-1.30;99.90
11664;DHT22;72375;59.302;18.204;2024-01-15T05:16:18;-1.30;99.90
11664;DHT22;72375;59.302;18.204;2024-01-15T05:19:04;-1.30;99.90
11664;DHT22;72375;59.302;18.204;2024-01-15T05:21:49;-1.30;99.90
11664;DHT22;72375;59.302;18.204;2024-01-15T05:24:35;-1.40;99.90
11664;DHT22;72375;59.302;18.204;2024-01-15T05:27:22;-1.20;99.90
11664;DHT22;72375;59.302;18.204;2024-01-15T05:30:08;-1.40;99.90
11664;DHT22;72375;59.302;18.204;2024-01-15T05:32:54;-1.40;99.90
11664;DHT22;72375;59.302;18.204;2024-01-15T05:35:40;-1.40;99.90
11664;DHT22;72375;59.302;18.204;2024-01-15T05:38:26;-1.30;99.90
11664;DHT22;72375;59.302;18.204;2024-01-15T05:41:12;-1.40;99.90
11664;DHT22;72375;59.302;18.204;2024-01-15T05:43:59;-1.40;99.90
11664;DHT22;72375;59.302;18.204;2024-01-15T05:46:43;-1.40;99.90
11664;DHT22;72375;59.302;18.204;2024-01-15T05:49:29;-1.40;99.90
11664;DHT22;72375;59.302;18.204;2024-01-15T05:52:15;-1.40;99.90
11664;DHT22;72375;59.302;18.204;2024-01-15T05:55:01;-1.40;99.90
11664;DHT22;72375;59.302;18.204;2024-01-15T05:57:46;-1.50;99.90
11664;DHT22;72375;59.302;18.204;2024-01-15T06:00:33;-1.50;99.90
11664;DHT22;72375;59.302;18.204;2024-01-15T06:03:19;-1.20;99.90
11664;DHT22;72375;59.302;18.204;2024-01-15T06:06:05;-1.50;99.90
11664;DHT22;72375;59.302;18.204;2024-01-15T06:08:51;-1.50;99.90
11664;DHT22;72375;59.302;18.204;2024-01-15T06:11:37;-1.50;99.90
11664;DHT22;72375;59.302;18.204;2024-01-15T06:14:23;-1.40;99.90
11664;DHT22;72375;59.302;18.204;2024-01-15T06:17:10;-1.60;99.90
11664;DHT22;72375;59.302;18.204;2024-01-15T06:19:56;-1.50;99.90
11664;DHT22;72375;59.302;18.204;2024-01-15T06:22:42;-1.50;99.90
11664;DHT22;72375;59.302;18.204;2024-01-15T06:25:27;-1.60;99.90
11664;DHT22;72375;59.302;18.204;2024-01-15T06:28:13;-1.50;99.90
11664;DHT22;72375;59.302;18.204;2024-01-15T06:30:59;-1.60;99.90
11664;DHT22;72375;59.302;18.204;2024-01-15T06:33:46;-1.50;99.90
11664;DHT22;72375;59.302;18.204;2024-01-15T06:36:32;-1.50;99.90
11664;DHT22;72375;59.302;18.204;2024-01-15T06:39:18;-1.40;99.90
11664;DHT22;72375;59.302;18.204;2024-01-15T06:42:04;-1.50;99.90
11664;DHT22;72375;59.302;18.204;2024-01-15T06:44:50;-1.60;99.90
11664;DHT22;72375;59.302;18.204;2024-01-15T06:47:36;-1.60;99.90
11664;DHT22;72375;59.302;18.204;2024-01-15T06:50:24;-1.60;99.90
11664;DHT22;72375;59.302;18.204;2024-01-15T06:53:09;-1.60;99.90
11664;DHT22;72375;59.302;18.204;2024-01-15T06:55:55;-1.60;99.90
11664;DHT22;72375;59.302;18.204;2024-01-15T06:58:41;-1.60;99.90
11664;DHT22;72375;59.302;18.204;2024-01-15T07:01:26;-1.60;99.90
11664;DHT22;72375;59.302;18.204;2024-01-15T07:04:12;-1.30;99.90
11664;DHT22;72375;59.302;18.204;2024-01-15T07:07:00;-1.70;99.90
11664;DHT22;72375;59.302;18.204;2024-01-15T07:09:45;-1.10;99.90
11664;DHT22;72375;59.302;18.204;2024-01-15T07:12:31;-1.70;99.90
11664;DHT22;72375;59.302;18.204;2024-01-15T07:15:16;-1.20;99.90
11664;DHT22;72375;59.302;18.204;2024-01-15T07:18:03;-1.70;99.90
11664;DHT22;72375;59.302;18.204;2024-01-15T07:20:48;-1.70;99.90
11664;DHT22;72375;59.302;18.204;2024-01-15T07:23:35;-0.90;99.90
11664;DHT22;72375;59.302;18.204;2024-01-15T07:26:21;-1.70;99.90
11664;DHT22;72375;59.302;18.204;2024-01-15T07:29:06;-1.40;99.90
11664;DHT22;72375;59.302;18.204;2024-01-15T07:31:52;-1.80;99.90
11664;DHT22;72375;59.302;18.204;2024-01-15T07:34:38;-1.80;99.90
11664;DHT22;72375;59.302;18.204;2024-01-15T07:37:24;-1.80;99.90
11664;DHT22;72375;59.302;18.204;2024-01-15T07:40:11;-1.60;99.90
11664;DHT22;72375;59.302;18.204;2024-01-15T07:42:57;-1.80;99.90
11664;DHT22;72375;59.302;18.204;2024-01-15T07:45:43;-1.80;99.90
11664;DHT22;72375;59.302;18.204;2024-01-15T07:48:29;-1.80;99.90
11664;DHT22;72375;59.302;18.204;2024-01-15T07:51:15;-1.20;99.90
11664;DHT22;72375;59.302;18.204;2024-01-15T07:54:01;-1.80;99.90
11664;DHT22;72375;59.302;18.204;2024-01-15T07:56:55;-1.80;99.90
11664;DHT22;72375;59.302;18.204;2024-01-15T07:59:41;-1.80;99.90
11664;DHT22;72375;59.302;18.204;2024-01-15T08:02:28;-1.80;99.90
11664;DHT22;72375;59.302;18.204;2024-01-15T08:05:13;-1.90;99.90
11664;DHT22;72375;59.302;18.204;2024-01-15T08:07:59;-1.80;99.90
11664;DHT22;72375;59.302;18.204;2024-01-15T08:10:45;-1.80;99.90
11664;DHT22;72375;59.302;18.204;2024-01-15T08:13:32;-1.50;99.90
11664;DHT22;72375;59.302;18.204;2024-01-15T08:16:17;-1.90;99.90
11664;DHT22;72375;59.302;18.204;2024-01-15T08:19:03;-1.80;99.90
11664;DHT22;72375;59.302;18.204;2024-01-15T08:21:49;-1.80;99.90
11664;DHT22;72375;59.302;18.204;2024-01-15T08:24:35;-1.80;99.90
11664;DHT22;72375;59.302;18.204;2024-01-15T08:27:21;-1.80;99.90
11664;DHT22;72375;59.302;18.204;2024-01-15T08:30:10;-1.80;99.90
11664;DHT22;72375;59.302;18.204;2024-01-15T08:32:55;-1.80;99.90
11664;DHT22;72375;59.302;18.204;2024-01-15T08:35:41;-1.80;99.90
11664;DHT22;72375;59.302;18.204;2024-01-15T08:38:26;-1.80;99.90
11664;DHT22;72375;59.302;18.204;2024-01-15T08:41:12;-1.70;99.90
11664;DHT22;72375;59.302;18.204;2024-01-15T08:43:58;-1.80;99.90
11664;DHT22;72375;59.302;18.204;2024-01-15T08:46:45;-1.80;99.90
11664;DHT22;72375;59.302;18.204;2024-01-15T08:49:30;-1.80;99.90
11664;DHT22;72375;59.302;18.204;2024-01-15T08:52:16;-1.80;99.90
11664;DHT22;72375;59.302;18.204;2024-01-15T08:55:02;-1.80;99.90
11664;DHT22;72375;59.302;18.204;2024-01-15T08:57:48;-1.80;99.90
11664;DHT22;72375;59.302;18.204;2024-01-15T09:00:34;-1.80;99.90
11664;DHT22;72375;59.302;18.204;2024-01-15T09:03:21;-1.80;99.90
11664;DHT22;72375;59.302;18.204;2024-01-15T09:06:06;-1.60;99.90
11664;DHT22;72375;59.302;18.204;2024-01-15T09:08:52;-1.80;99.90
11664;DHT22;72375;59.302;18.204;2024-01-15T09:11:37;-1.40;99.90
11664;DHT22;72375;59.302;18.204;2024-01-15T09:14:23;-1.70;99.90
11664;DHT22;72375;59.302;18.204;2024-01-15T09:17:11;-1.70;99.90
11664;DHT22;72375;59.302;18.204;2024-01-15T09:19:58;-1.70;99.90
11664;DHT22;72375;59.302;18.204;2024-01-15T09:22:43;-1.70;99.90
11664;DHT22;72375;59.302;18.204;2024-01-15T09:25:29;-1.70;99.90
11664;DHT22;72375;59.302;18.204;2024-01-15T09:28:15;-1.70;99.90
11664;DHT22;72375;59.302;18.204;2024-01-15T09:31:00;-1.70;99.90
11664;DHT22;72375;59.302;18.204;2024-01-15T09:33:46;-1.70;99.90
11664;DHT22;72375;59.302;18.204;2024-01-15T09:36:39;-1.60;99.90
11664;DHT22;72375;59.302;18.204;2024-01-15T09:39:24;-1.70;99.90
11664;DHT22;72375;59.302;18.204;2024-01-15T09:42:10;-1.70;99.90
11664;DHT22;72375;59.302;18.204;2024-01-15T09:44:56;-1.60;99.90
11664;DHT22;72375;59.302;18.204;2024-01-15T09:47:42;-1.70;99.90
11664;DHT22;72375;59.302;18.204;2024-01-15T09:50:28;-1.70;99.90
11664;DHT22;72375;59.302;18.204;2024-01-15T09:53:15;-1.60;99.90
11664;DHT22;72375;59.302;18.204;2024-01-15T09:56:01;-1.20;99.90
11664;DHT22;72375;59.302;18.204;2024-01-15T09:58:48;-1.60;99.90
11664;DHT22;72375;59.302;18.204;2024-01-15T10:01:35;-1.60;99.90
11664;DHT22;72375;59.302;18.204;2024-01-15T10:04:21;-1.60;99.90
11664;DHT22;72375;59.302;18.204;2024-01-15T10:07:08;-1.50;99.90
11664;DHT22;72375;59.302;18.204;2024-01-15T10:09:55;-0.70;99.90
11664;DHT22;72375;59.302;18.204;2024-01-15T10:12:42;-1.40;99.90
11664;DHT22;72375;59.302;18.204;2024-01-15T10:15:28;-1.40;99.90
11664;DHT22;72375;59.302;18.204;2024-01-15T10:18:14;-1.30;99.90
11664;DHT22;72375;59.302;18.204;2024-01-15T10:21:00;-1.30;99.90
11664;DHT22;72375;59.302;18.204;2024-01-15T10:23:47;-1.30;99.90
11664;DHT22;72375;59.302;18.204;2024-01-15T10:26:33;-1.20;99.90
11664;DHT22;72375;59.302;18.204;2024-01-15T10:29:19;-1.10;99.90
11664;DHT22;72375;59.302;18.204;2024-01-15T10:32:06;-1.10;99.90
11664;DHT22;72375;59.302;18.204;2024-01-15T10:34:53;-1.30;99.90
11664;DHT22;72375;59.302;18.204;2024-01-15T10:37:41;-1.30;99.90
11664;DHT22;72375;59.302;18.204;2024-01-15T10:40:27;-1.10;99.90
11664;DHT22;72375;59.302;18.204;2024-01-15T10:43:14;-1.30;99.90
11664;DHT22;72375;59.302;18.204;2024-01-15T10:46:02;-1.40;99.90
11664;DHT22;72375;59.302;18.204;2024-01-15T10:48:48;-1.40;99.90
11664;DHT22;72375;59.302;18.204;2024-01-15T10:51:34;-1.10;99.90
11664;DHT22;72375;59.302;18.204;2024-01-15T10:54:21;-1.00;99.90
11664;DHT22;72375;59.302;18.204;2024-01-15T10:57:07;-1.40;99.90
11664;DHT22;72375;59.302;18.204;2024-01-15T10:59:54;-1.30;99.90
11664;DHT22;72375;59.302;18.204;2024-01-15T11:02:40;-1.10;99.90
11664;DHT22;72375;59.302;18.204;2024-01-15T11:05:27;-0.70;99.90
11664;DHT22;72375;59.302;18.204;2024-01-15T11:08:13;-1.10;99.90
11664;DHT22;72375;59.302;18.204;2024-01-15T11:11:02;-0.50;99.90
11664;DHT22;72375;59.302;18.204;2024-01-15T11:13:48;-1.20;99.90
11664;DHT22;72375;59.302;18.204;2024-01-15T11:16:55;-1.30;99.90
11664;DHT22;72375;59.302;18.204;2024-01-15T11:19:44;-1.30;99.90
11664;DHT22;72375;59.302;18.204;2024-01-15T11:22:48;-1.40;99.90
11664;DHT22;72375;59.302;18.204;2024-01-15T11:25:35;-1.40;99.90
11664;DHT22;72375;59.302;18.204;2024-01-15T11:28:46;-1.40;99.90
11664;DHT22;72375;59.302;18.204;2024-01-15T11:32:02;-1.40;99.90
11664;DHT22;72375;59.302;18.204;2024-01-15T11:34:59;-1.40;99.90
11664;DHT22;72375;59.302;18.204;2024-01-15T11:37:57;-1.40;99.90
11664;DHT22;72375;59.302;18.204;2024-01-15T11:40:44;-1.40;99.90
11664;DHT22;72375;59.302;18.204;2024-01-15T11:43:32;-1.40;99.90
11664;DHT22;72375;59.302;18.204;2024-01-15T11:46:18;-1.40;99.90
11664;DHT22;72375;59.302;18.204;2024-01-15T11:49:05;-1.40;99.90
11664;DHT22;72375;59.302;18.204;2024-01-15T11:51:53;-1.10;99.90
11664;DHT22;72375;59.302;18.204;2024-01-15T11:54:44;-1.20;99.90
11664;DHT22;72375;59.302;18.204;2024-01-15T11:57:40;-1.40;99.90
11664;DHT22;72375;59.302;18.204;2024-01-15T12:00:27;-1.40;99.90
11664;DHT22;72375;59.302;18.204;2024-01-15T12:03:13;-1.40;99.90
11664;DHT22;72375;59.302;18.204;2024-01-15T12:06:00;-1.40;99.90
11664;DHT22;72375;59.302;18.204;2024-01-15T12:08:45;-1.20;99.90
11664;DHT22;72375;59.302;18.204;2024-01-15T12:11:32;-1.10;99.90
11664;DHT22;72375;59.302;18.204;2024-01-15T12:14:20;-1.40;99.90
11664;DHT22;72375;59.302;18.204;2024-01-15T12:17:06;-1.40;99.90
11664;DHT22;72375;59.302;18.204;2024-01-15T12:19:51;-0.50;99.90
11664;DHT22;72375;59.302;18.204;2024-01-15T12:22:38;-1.30;99.90
11664;DHT22;72375;59.302;18.204;2024-01-15T12:25:25;-1.40;99.90
11664;DHT22;72375;59.302;18.204;2024-01-15T12:28:11;-1.20;99.90
11664;DHT22;72375;59.302;18.204;2024-01-15T12:30:57;-1.40;99.90
11664;DHT22;72375;59.302;18.204;2024-01-15T12:33:44;-1.10;99.90
11664;DHT22;72375;59.302;18.204;2024-01-15T12:36:30;-1.40;99.90
11664;DHT22;72375;59.302;18.204;2024-01-15T12:39:17;-1.40;99.90
11664;DHT22;72375;59.302;18.204;2024-01-15T12:42:04;-1.40;99.90
11664;DHT22;72375;59.302;18.204;2024-01-15T12:44:50;-1.40;99.90
11664;DHT22;72375;59.302;18.204;2024-01-15T12:47:36;-1.40;99.90
11664;DHT22;72375;59.302;18.204;2024-01-15T12:50:24;-1.40;99.90
11664;DHT22;72375;59.302;18.204;2024-01-15T12:53:09;-0.80;99.90
11664;DHT22;72375;59.302;18.204;2024-01-15T12:55:56;-1.40;99.90
11664;DHT22;72375;59.302;18.204;2024-01-15T12:58:42;-0.60;99.90
11664;DHT22;72375;59.302;18.204;2024-01-15T13:01:27;-1.50;99.90
11664;DHT22;72375;59.302;18.204;2024-01-15T13:04:21;-1.50;99.90
11664;DHT22;72375;59.302;18.204;2024-01-15T13:07:07;-1.40;99.90
11664;DHT22;72375;59.302;18.204;2024-01-15T13:09:52;-1.50;99.90
11664;DHT22;72375;59.302;18.204;2024-01-15T13:12:40;-1.50;99.90
11664;DHT22;72375;59.302;18.204;2024-01-15T13:15:25;-1.50;99.90
11664;DHT22;72375;59.302;18.204;2024-01-15T13:18:11;-1.50;99.90
11664;DHT22;72375;59.302;18.204;2024-01-15T13:20:57;-1.50;99.90
11664;DHT22;72375;59.302;18.204;2024-01-15T13:23:43;-1.20;99.90
11664;DHT22;72375;59.302;18.204;2024-01-15T13:26:28;-1.60;99.90
11664;DHT22;72375;59.302;18.204;2024-01-15T13:29:15;-1.60;99.90
11664;DHT22;72375;59.302;18.204;2024-01-15T13:32:01;-1.50;99.90
11664;DHT22;72375;59.302;18.204;2024-01-15T13:34:47;-1.70;99.90
11664;DHT22;72375;59.302;18.204;2024-01-15T13:37:32;-1.70;99.90
11664;DHT22;72375;59.302;18.204;2024-01-15T13:40:18;-1.60;99.90
11664;DHT22;72375;59.302;18.204;2024-01-15T13:43:04;-1.80;99.90
11664;DHT22;72375;59.302;18.204;2024-01-15T13:45:53;-1.80;99.90
11664;DHT22;72375;59.302;18.204;2024-01-15T13:48:39;-1.00;99.90
11664;DHT22;72375;59.302;18.204;2024-01-15T13:51:25;-1.20;99.90
11664;DHT22;72375;59.302;18.204;2024-01-15T13:54:11;-1.90;99.90
11664;DHT22;72375;59.302;18.204;2024-01-15T13:56:57;-1.90;99.90
11664;DHT22;72375;59.302;18.204;2024-01-15T13:59:43;-1.80;99.90
11664;DHT22;72375;59.302;18.204;2024-01-15T14:02:30;-2.00;99.90
11664;DHT22;72375;59.302;18.204;2024-01-15T14:05:16;-2.00;99.90
11664;DHT22;72375;59.302;18.204;2024-01-15T14:08:01;-1.80;99.90
11664;DHT22;72375;59.302;18.204;2024-01-15T14:10:48;-2.00;99.90
11664;DHT22;72375;59.302;18.204;2024-01-15T14:13:33;-2.10;99.90
11664;DHT22;72375;59.302;18.204;2024-01-15T14:16:19;-1.60;99.90
11664;DHT22;72375;59.302;18.204;2024-01-15T14:19:06;-2.00;99.90
11664;DHT22;72375;59.302;18.204;2024-01-15T14:21:53;-2.20;99.90
11664;DHT22;72375;59.302;18.204;2024-01-15T14:24:39;-2.20;99.90
11664;DHT22;72375;59.302;18.204;2024-01-15T14:27:26;-2.10;99.90
11664;DHT22;72375;59.302;18.204;2024-01-15T14:30:13;-2.20;99.90
11664;DHT22;72375;59.302;18.204;2024-01-15T14:33:00;-2.30;99.90
11664;DHT22;72375;59.302;18.204;2024-01-15T14:35:47;-2.30;99.90
11664;DHT22;72375;59.302;18.204;2024-01-15T14:38:32;-2.30;99.90
11664;DHT22;72375;59.302;18.204;2024-01-15T14:41:19;-2.30;99.90
11664;DHT22;72375;59.302;18.204;2024-01-15T14:44:04;-2.30;99.90
11664;DHT22;72375;59.302;18.204;2024-01-15T14:46:50;-2.20;99.90
11664;DHT22;72375;59.302;18.204;2024-01-15T14:49:36;-2.40;99.90
11664;DHT22;72375;59.302;18.204;2024-01-15T14:52:23;-2.30;99.90
11664;DHT22;72375;59.302;18.204;2024-01-15T14:55:09;-2.40;99.90
11664;DHT22;72375;59.302;18.204;2024-01-15T14:57:54;-2.40;99.90
11664;DHT22;72375;59.302;18.204;2024-01-15T15:00:40;-2.40;99.90
11664;DHT22;72375;59.302;18.204;2024-01-15T15:03:26;-2.40;99.90
11664;DHT22;72375;59.302;18.204;2024-01-15T15:06:11;-2.40;99.90
11664;DHT22;72375;59.302;18.204;2024-01-15T15:08:59;-2.40;99.90
11664;DHT22;72375;59.302;18.204;2024-01-15T15:11:45;-2.10;99.90
11664;DHT22;72375;59.302;18.204;2024-01-15T15:14:30;-2.40;99.90
11664;DHT22;72375;59.302;18.204;2024-01-15T15:17:21;-2.40;99.90
11664;DHT22;72375;59.302;18.204;2024-01-15T15:20:07;-2.40;99.90
11664;DHT22;72375;59.302;18.204;2024-01-15T15:22:53;-2.40;99.90
11664;DHT22;72375;59.302;18.204;2024-01-15T15:25:41;-2.30;99.90
11664;DHT22;72375;59.302;18.204;2024-01-15T15:28:27;-2.20;99.90
11664;DHT22;72375;59.302;18.204;2024-01-15T15:31:13;-2.10;99.90
11664;DHT22;72375;59.302;18.204;2024-01-15T15:33:59;-2.30;99.90
11664;DHT22;72375;59.302;18.204;2024-01-15T15:36:45;-2.40;99.90
11664;DHT22;72375;59.302;18.204;2024-01-15T15:39:30;-2.40;99.90
11664;DHT22;72375;59.302;18.204;2024-01-15T15:42:17;-2.40;99.90
11664;DHT22;72375;59.302;18.204;2024-01-15T15:45:04;-2.30;99.90
11664;DHT22;72375;59.302;18.204;2024-01-15T15:47:50;-2.40;99.90
11664;DHT22;72375;59.302;18.204;2024-01-15T15:50:35;-2.40;99.90
11664;DHT22;72375;59.302;18.204;2024-01-15T15:53:21;-2.40;99.90
11664;DHT22;72375;59.302;18.204;2024-01-15T15:56:07;-2.40;99.90
11664;DHT22;72375;59.302;18.204;2024-01-15T15:58:55;-2.40;99.90
11664;DHT22;72375;59.302;18.204;2024-01-15T16:01:41;-2.50;99.90
11664;DHT22;72375;59.302;18.204;2024-01-15T16:04:26;-2.50;99.90
11664;DHT22;72375;59.302;18.204;2024-01-15T16:07:12;-2.30;99.90
11664;DHT22;72375;59.302;18.204;2024-01-15T16:09:58;-2.50;99.90
11664;DHT22;72375;59.302;18.204;2024-01-15T16:12:44;-2.40;99.90
11664;DHT22;72375;59.302;18.204;2024-01-15T16:15:31;-2.50;99.90
11664;DHT22;72375;59.302;18.204;2024-01-15T16:18:17;-2.50;99.90
11664;DHT22;72375;59.302;18.204;2024-01-15T16:21:03;-2.50;99.90
11664;DHT22;72375;59.302;18.204;2024-01-15T16:23:49;-2.40;99.90
11664;DHT22;72375;59.302;18.204;2024-01-15T16:26:35;-2.40;99.90
11664;DHT22;72375;59.302;18.204;2024-01-15T16:29:20;-1.60;99.90
11664;DHT22;72375;59.302;18.204;2024-01-15T16:32:08;-2.40;99.90
11664;DHT22;72375;59.302;18.204;2024-01-15T16:34:54;-2.40;99.90
11664;DHT22;72375;59.302;18.204;2024-01-15T16:37:39;-2.50;99.90
11664;DHT22;72375;59.302;18.204;2024-01-15T16:40:25;-2.40;99.90
11664;DHT22;72375;59.302;18.204;2024-01-15T16:43:11;-2.40;99.90
11664;DHT22;72375;59.302;18.204;2024-01-15T16:45:57;-2.50;99.90
11664;DHT22;72375;59.302;18.204;2024-01-15T16:48:44;-2.50;99.90
11664;DHT22;72375;59.302;18.204;2024-01-15T16:51:29;-2.50;99.90
11664;DHT22;72375;59.302;18.204;2024-01-15T16:54:15;-2.50;99.90
11664;DHT22;72375;59.302;18.204;2024-01-15T16:57:00;-2.40;99.90
11664;DHT22;72375;59.302;18.204;2024-01-15T16:59:46;-2.50;99.90
11664;DHT22;72375;59.302;18.204;2024-01-15T17:02:32;-2.40;99.90
11664;DHT22;72375;59.302;18.204;2024-01-15T17:08:06;-2.50;99.90
11664;DHT22;72375;59.302;18.204;2024-01-15T17:10:52;-1.70;99.90
11664;DHT22;72375;59.302;18.204;2024-01-15T17:13:37;-2.30;99.90
11664;DHT22;72375;59.302;18.204;2024-01-15T17:16:23;-2.50;99.90
11664;DHT22;72375;59.302;18.204;2024-01-15T17:19:09;-1.90;99.90